createdAt,value
2023-08-11T22:20:24.030Z,101189.75
2023-08-11T22:22:50.485Z,101203.03
2023-08-11T22:25:16.955Z,101200.94
2023-08-11T22:27:43.333Z,101197.94
2023-08-11T22:30:09.757Z,101198.31
2023-08-11T22:32:36.176Z,101193.56
2023-08-11T22:35:02.610Z,101193.53
2023-08-11T22:37:29.021Z,101186.53
2023-08-11T22:39:55.435Z,101177.91
2023-08-11T22:42:21.842Z,101177.63
2023-08-11T22:44:48.269Z,101181.69
2023-08-11T22:47:14.667Z,101187.28
2023-08-11T22:49:41.106Z,101182.06
2023-08-11T22:52:07.508Z,101176.16
2023-08-11T22:54:33.909Z,101173.16
2023-08-11T22:57:00.284Z,101176.28
2023-08-11T22:59:26.685Z,101172.31
2023-08-11T23:01:53.095Z,101169.56
2023-08-11T23:04:19.554Z,101161.88
2023-08-11T23:06:45.985Z,101159.78
2023-08-11T23:09:12.409Z,101157.97
2023-08-11T23:11:38.777Z,101142.75
2023-08-11T23:14:05.158Z,101149.72
2023-08-11T23:16:31.624Z,101147.03
2023-08-11T23:18:58.017Z,101141.53
2023-08-11T23:21:24.411Z,101136.56
2023-08-11T23:23:50.810Z,101138.50
2023-08-11T23:26:17.220Z,101137.19
2023-08-11T23:28:43.734Z,101140.28
2023-08-11T23:31:10.104Z,101130.59
2023-08-11T23:33:36.471Z,101131.19
2023-08-11T23:36:02.868Z,101133.06
2023-08-11T23:38:29.253Z,101143.03
2023-08-11T23:40:55.652Z,101135.63
2023-08-11T23:43:22.004Z,101129.56
2023-08-11T23:45:48.431Z,101122.66
2023-08-11T23:48:14.952Z,101124.19
2023-08-11T23:50:41.359Z,101119.72
2023-08-11T23:53:07.742Z,101120.56
2023-08-11T23:55:34.156Z,101119.22
2023-08-11T23:58:00.569Z,101119.78
